PWSweather.com
Personal Weather Stations
Station Observations
NEHAYSWX2
Hays, KS 67601

Hays, KS 67601

Lat: 38.886619, Lon: -99.2983815

Elevation: 1998

Station Type: Davis Vantage Vue

http://www.hayskansasweather.com

Latest ConditionsUpdated 11:00:46 PM CDT Tuesday, Apr 15, 2014
Currently Today's Max Today's Min Today's Average
Temperature 49.6°F9.8°C 65.6°F18.7°C 22.5°F-5.3°C 45.4°F7.4°C
Dew Point 23.0°F-5.0°C 27.2°F-2.7°C 14.9°F-9.5°C 20.3°F-6.5°C
Winds 4.3 mph SE6.9 kmh SE 15.9 mph SW25.6 kmh SW - 5.1 mph 8.2 kmh
Wind Gusts 8.0 mph12.9 kmh 23.0 mph37.0 kmh - -
Humidity 35% 74% 21% 42%
Pressure 29.80 in1009.1 mb 30.21 in1023.0 mb 29.80 in1009.1 mb -
Hour Temp Dew Point Humidity Winds Wind Gusts Pressure Precip Precip Rate Daily Precip Total
11:00 PM 49.6°F9.8°C 23.0°F-5.0°C 35% 4.3 mph SE6.9 kmh SE 8.0 mph12.9 kmh 29.80 in1009.1 mb 0.00 in0.0 mm 0.00 in/hr0.0 mm/hr 0.00 in0.0 mm
10:50 PM 49.9°F9.9°C 23.9°F-4.5°C 36% 3.3 mph ESE5.3 kmh ESE 6.0 mph9.7 kmh 29.80 in1009.1 mb 0.00 in0.0 mm 0.00 in/hr0.0 mm/hr 0.00 in0.0 mm
10:40 PM 50.3°F10.2°C 24.3°F-4.3°C 36% 3.0 mph SE4.8 kmh SE 7.0 mph11.3 kmh 29.80 in1009.1 mb 0.00 in0.0 mm 0.00 in/hr0.0 mm/hr 0.00 in0.0 mm
10:30 PM 50.9°F10.5°C 24.1°F-4.4°C 35% 3.3 mph ESE5.3 kmh ESE 7.0 mph11.3 kmh 29.81 in1009.5 mb 0.00 in0.0 mm 0.00 in/hr0.0 mm/hr 0.00 in0.0 mm
10:20 PM 51.6°F10.9°C 24.8°F-4.0°C 35% 4.8 mph SE7.7 kmh SE 10.0 mph16.1 kmh 29.81 in1009.5 mb 0.00 in0.0 mm 0.00 in/hr0.0 mm/hr 0.00 in0.0 mm
10:10 PM 52.4°F11.3°C 24.8°F-4.0°C 34% 3.9 mph SE6.3 kmh SE 6.0 mph9.7 kmh 29.81 in1009.5 mb 0.00 in0.0 mm 0.00 in/hr0.0 mm/hr 0.00 in0.0 mm
10:00 PM 53.1°F11.7°C 24.7°F-4.1°C 33% 5.6 mph SE9.0 kmh SE 9.0 mph14.5 kmh 29.81 in1009.5 mb 0.00 in0.0 mm 0.00 in/hr0.0 mm/hr 0.00 in0.0 mm
09:50 PM 53.7°F12.1°C 25.2°F-3.8°C 33% 6.1 mph SE9.8 kmh SE 13.0 mph20.9 kmh 29.81 in1009.5 mb 0.00 in0.0 mm 0.00 in/hr0.0 mm/hr 0.00 in0.0 mm
09:40 PM 54.3°F12.4°C 25.0°F-3.9°C 32% 5.5 mph SE8.9 kmh SE 8.0 mph12.9 kmh 29.81 in1009.5 mb 0.00 in0.0 mm 0.00 in/hr0.0 mm/hr 0.00 in0.0 mm
09:30 PM 54.7°F12.6°C 25.4°F-3.7°C 32% 4.0 mph SE6.4 kmh SE 9.0 mph14.5 kmh 29.81 in1009.5 mb 0.00 in0.0 mm 0.00 in/hr0.0 mm/hr 0.00 in0.0 mm
09:20 PM 55.2°F12.9°C 25.0°F-3.9°C 31% 5.8 mph E9.3 kmh E 8.0 mph12.9 kmh 29.81 in1009.5 mb 0.00 in0.0 mm 0.00 in/hr0.0 mm/hr 0.00 in0.0 mm
09:10 PM 55.7°F13.2°C 25.5°F-3.6°C 31% 4.3 mph ESE6.9 kmh ESE 7.0 mph11.3 kmh 29.81 in1009.5 mb 0.00 in0.0 mm 0.00 in/hr0.0 mm/hr 0.00 in0.0 mm
09:00 PM 56.5°F13.6°C 25.4°F-3.7°C 30% 5.3 mph ESE8.5 kmh ESE 9.0 mph14.5 kmh 29.80 in1009.1 mb 0.00 in0.0 mm 0.00 in/hr0.0 mm/hr 0.00 in0.0 mm
08:50 PM 57.3°F14.1°C 25.3°F-3.7°C 29% 4.1 mph SSE6.6 kmh SSE 8.0 mph12.9 kmh 29.80 in1009.1 mb 0.00 in0.0 mm 0.00 in/hr0.0 mm/hr 0.00 in0.0 mm
08:40 PM 58.1°F14.5°C 25.1°F-3.8°C 28% 3.2 mph SSE5.1 kmh SSE 7.0 mph11.3 kmh 29.80 in1009.1 mb 0.00 in0.0 mm 0.00 in/hr0.0 mm/hr 0.00 in0.0 mm
08:30 PM 58.8°F14.9°C 25.7°F-3.5°C 28% 2.6 mph SSE4.2 kmh SSE 4.0 mph6.4 kmh 29.81 in1009.5 mb 0.00 in0.0 mm 0.00 in/hr0.0 mm/hr 0.00 in0.0 mm
08:20 PM 59.6°F15.3°C 25.5°F-3.6°C 27% 0.6 mph SSW1.0 kmh SSW 3.0 mph4.8 kmh 29.81 in1009.5 mb 0.00 in0.0 mm 0.00 in/hr0.0 mm/hr 0.00 in0.0 mm
08:10 PM 60.5°F15.8°C 25.4°F-3.7°C 26% 2.2 mph SSE3.5 kmh SSE 6.0 mph9.7 kmh 29.81 in1009.5 mb 0.00 in0.0 mm 0.00 in/hr0.0 mm/hr 0.00 in0.0 mm
08:01 PM 61.5°F16.4°C 25.3°F-3.7°C 25% 2.4 mph S3.9 kmh S 6.0 mph9.7 kmh 29.82 in1009.8 mb 0.00 in0.0 mm 0.00 in/hr0.0 mm/hr 0.00 in0.0 mm
07:50 PM 62.4°F16.9°C 25.1°F-3.8°C 24% 3.8 mph W6.1 kmh W 8.0 mph12.9 kmh 29.82 in1009.8 mb 0.00 in0.0 mm 0.00 in/hr0.0 mm/hr 0.00 in0.0 mm
07:40 PM 63.0°F17.2°C 24.6°F-4.1°C 23% 4.7 mph SW7.6 kmh SW 9.0 mph14.5 kmh 29.82 in1009.8 mb 0.00 in0.0 mm 0.00 in/hr0.0 mm/hr 0.00 in0.0 mm
07:30 PM 63.2°F17.3°C 26.8°F-2.9°C 25% 4.5 mph SW7.2 kmh SW 8.0 mph12.9 kmh 29.82 in1009.8 mb 0.00 in0.0 mm 0.00 in/hr0.0 mm/hr 0.00 in0.0 mm
07:20 PM 63.7°F17.6°C 27.2°F-2.7°C 25% 3.5 mph S5.6 kmh S 8.0 mph12.9 kmh 29.83 in1010.2 mb 0.00 in0.0 mm 0.00 in/hr0.0 mm/hr 0.00 in0.0 mm
07:10 PM 64.2°F17.9°C 26.6°F-3.0°C 24% 4.4 mph SE7.1 kmh SE 11.0 mph17.7 kmh 29.83 in1010.2 mb 0.00 in0.0 mm 0.00 in/hr0.0 mm/hr 0.00 in0.0 mm
07:01 PM 64.6°F18.1°C 24.9°F-3.9°C 22% 5.0 mph E8.0 kmh E 7.0 mph11.3 kmh 29.83 in1010.2 mb 0.00 in0.0 mm 0.00 in/hr0.0 mm/hr 0.00 in0.0 mm
06:50 PM 65.3°F18.5°C 25.4°F-3.7°C 22% 5.7 mph SW9.2 kmh SW 12.0 mph19.3 kmh 29.83 in1010.2 mb 0.00 in0.0 mm 0.00 in/hr0.0 mm/hr 0.00 in0.0 mm
06:40 PM 65.3°F18.5°C 25.4°F-3.7°C 22% 10.4 mph SW16.7 kmh SW 18.0 mph29.0 kmh 29.84 in1010.5 mb 0.00 in0.0 mm 0.00 in/hr0.0 mm/hr 0.00 in0.0 mm
06:31 PM 65.3°F18.5°C 25.4°F-3.7°C 22% 8.8 mph NE14.2 kmh NE 16.0 mph25.7 kmh 29.84 in1010.5 mb 0.00 in0.0 mm 0.00 in/hr0.0 mm/hr 0.00 in0.0 mm
06:20 PM 64.9°F18.3°C 25.1°F-3.8°C 22% 10.3 mph SSW16.6 kmh SSW 20.0 mph32.2 kmh 29.84 in1010.5 mb 0.00 in0.0 mm 0.00 in/hr0.0 mm/hr 0.00 in0.0 mm
06:10 PM 64.5°F18.1°C 24.7°F-4.1°C 22% 9.4 mph SW15.1 kmh SW 14.0 mph22.5 kmh 29.85 in1010.8 mb 0.00 in0.0 mm 0.00 in/hr0.0 mm/hr 0.00 in0.0 mm
06:01 PM 64.6°F18.1°C 24.8°F-4.0°C 22% 10.0 mph SW16.1 kmh SW 13.0 mph20.9 kmh 29.85 in1010.8 mb 0.00 in0.0 mm 0.00 in/hr0.0 mm/hr 0.00 in0.0 mm
05:50 PM 65.1°F18.4°C 25.3°F-3.7°C 22% 12.5 mph S20.1 kmh S 19.0 mph30.6 kmh 29.86 in1011.2 mb 0.00 in0.0 mm 0.00 in/hr0.0 mm/hr 0.00 in0.0 mm
05:40 PM 65.3°F18.5°C 25.5°F-3.6°C 22% 6.8 mph SW10.9 kmh SW 15.0 mph24.1 kmh 29.86 in1011.2 mb 0.00 in0.0 mm 0.00 in/hr0.0 mm/hr 0.00 in0.0 mm
05:30 PM 65.4°F18.6°C 25.5°F-3.6°C 22% 11.5 mph SSW18.5 kmh SSW 17.0 mph27.4 kmh 29.86 in1011.2 mb 0.00 in0.0 mm 0.00 in/hr0.0 mm/hr 0.00 in0.0 mm
05:20 PM 65.4°F18.6°C 25.5°F-3.6°C 22% 12.1 mph E19.5 kmh E 19.0 mph30.6 kmh 29.87 in1011.5 mb 0.00 in0.0 mm 0.00 in/hr0.0 mm/hr 0.00 in0.0 mm
05:10 PM 65.6°F18.7°C 25.7°F-3.5°C 22% 8.2 mph SSW13.2 kmh SSW 15.0 mph24.1 kmh 29.87 in1011.5 mb 0.00 in0.0 mm 0.00 in/hr0.0 mm/hr 0.00 in0.0 mm
05:02 PM 65.2°F18.4°C 26.4°F-3.1°C 23% 15.5 mph SSE24.9 kmh SSE 19.0 mph30.6 kmh 29.88 in1011.9 mb 0.00 in0.0 mm 0.00 in/hr0.0 mm/hr 0.00 in0.0 mm
04:50 PM 65.0°F18.3°C 26.2°F-3.2°C 23% 5.9 mph WSW9.5 kmh WSW 9.0 mph14.5 kmh 29.88 in1011.9 mb 0.00 in0.0 mm 0.00 in/hr0.0 mm/hr 0.00 in0.0 mm
04:40 PM 64.6°F18.1°C 25.9°F-3.4°C 23% 10.4 mph S16.7 kmh S 18.0 mph29.0 kmh 29.89 in1012.2 mb 0.00 in0.0 mm 0.00 in/hr0.0 mm/hr 0.00 in0.0 mm
04:31 PM 65.6°F18.7°C 26.8°F-2.9°C 23% 10.5 mph SW16.9 kmh SW 21.0 mph33.8 kmh 29.90 in1012.5 mb 0.00 in0.0 mm 0.00 in/hr0.0 mm/hr 0.00 in0.0 mm
04:20 PM 64.6°F18.1°C 27.0°F-2.8°C 24% 9.0 mph S14.5 kmh S 14.0 mph22.5 kmh 29.91 in1012.9 mb 0.00 in0.0 mm 0.00 in/hr0.0 mm/hr 0.00 in0.0 mm
04:10 PM 63.4°F17.4°C 25.9°F-3.4°C 24% 12.6 mph SW20.3 kmh SW 15.0 mph24.1 kmh 29.91 in1012.9 mb 0.00 in0.0 mm 0.00 in/hr0.0 mm/hr 0.00 in0.0 mm
04:01 PM 63.4°F17.4°C 25.9°F-3.4°C 24% 12.6 mph SW20.3 kmh SW 15.0 mph24.1 kmh 29.92 in1013.2 mb 0.00 in0.0 mm 0.00 in/hr0.0 mm/hr 0.00 in0.0 mm
03:50 PM 63.4°F17.4°C 25.9°F-3.4°C 24% 8.8 mph SW14.2 kmh SW 19.0 mph30.6 kmh 29.93 in1013.5 mb 0.00 in0.0 mm 0.00 in/hr0.0 mm/hr 0.00 in0.0 mm
03:40 PM 63.6°F17.6°C 25.1°F-3.8°C 23% 11.4 mph SW18.3 kmh SW 12.0 mph19.3 kmh 29.93 in1013.5 mb 0.00 in0.0 mm 0.00 in/hr0.0 mm/hr 0.00 in0.0 mm
03:30 PM 63.3°F17.4°C 25.8°F-3.4°C 24% 5.2 mph S8.4 kmh S 18.0 mph29.0 kmh 29.94 in1013.9 mb 0.00 in0.0 mm 0.00 in/hr0.0 mm/hr 0.00 in0.0 mm
03:20 PM 62.7°F17.1°C 24.3°F-4.3°C 23% 15.0 mph WSW24.1 kmh WSW 21.0 mph33.8 kmh 29.95 in1014.2 mb 0.00 in0.0 mm 0.00 in/hr0.0 mm/hr 0.00 in0.0 mm
03:10 PM 62.3°F16.8°C 24.0°F-4.4°C 23% 15.9 mph SW25.6 kmh SW 23.0 mph37.0 kmh 29.96 in1014.6 mb 0.00 in0.0 mm 0.00 in/hr0.0 mm/hr 0.00 in0.0 mm
03:01 PM 62.0°F16.7°C 23.7°F-4.6°C 23% 11.2 mph SW18.0 kmh SW 15.0 mph24.1 kmh 29.97 in1014.9 mb 0.00 in0.0 mm 0.00 in/hr0.0 mm/hr 0.00 in0.0 mm
02:50 PM 62.0°F16.7°C 23.7°F-4.6°C 23% 9.7 mph ENE15.6 kmh ENE 17.0 mph27.4 kmh 29.97 in1014.9 mb 0.00 in0.0 mm 0.00 in/hr0.0 mm/hr 0.00 in0.0 mm
02:40 PM 61.5°F16.4°C 22.3°F-5.4°C 22% 7.7 mph SW12.4 kmh SW 15.0 mph24.1 kmh 29.98 in1015.2 mb 0.00 in0.0 mm 0.00 in/hr0.0 mm/hr 0.00 in0.0 mm
02:30 PM 61.7°F16.5°C 22.4°F-5.3°C 22% 11.9 mph SW19.2 kmh SW 16.0 mph25.7 kmh 29.98 in1015.2 mb 0.00 in0.0 mm 0.00 in/hr0.0 mm/hr 0.00 in0.0 mm
02:20 PM 61.3°F16.3°C 21.0°F-6.1°C 21% 11.0 mph SW17.7 kmh SW 17.0 mph27.4 kmh 29.99 in1015.6 mb 0.00 in0.0 mm 0.00 in/hr0.0 mm/hr 0.00 in0.0 mm
02:10 PM 61.4°F16.3°C 21.1°F-6.1°C 21% 8.6 mph SSW13.8 kmh SSW 19.0 mph30.6 kmh 30.00 in1015.9 mb 0.00 in0.0 mm 0.00 in/hr0.0 mm/hr 0.00 in0.0 mm
02:02 PM 60.8°F16.0°C 20.6°F-6.3°C 21% 13.9 mph SW22.4 kmh SW 20.0 mph32.2 kmh 30.00 in1015.9 mb 0.00 in0.0 mm 0.00 in/hr0.0 mm/hr 0.00 in0.0 mm
01:50 PM 60.6°F15.9°C 20.4°F-6.4°C 21% 13.4 mph SE21.6 kmh SE 17.0 mph27.4 kmh 30.01 in1016.3 mb 0.00 in0.0 mm 0.00 in/hr0.0 mm/hr 0.00 in0.0 mm
01:40 PM 60.1°F15.6°C 21.1°F-6.1°C 22% 12.5 mph WSW20.1 kmh WSW 21.0 mph33.8 kmh 30.01 in1016.3 mb 0.00 in0.0 mm 0.00 in/hr0.0 mm/hr 0.00 in0.0 mm
01:31 PM 59.7°F15.4°C 19.6°F-6.9°C 21% 12.0 mph SSE19.3 kmh SSE 21.0 mph33.8 kmh 30.02 in1016.6 mb 0.00 in0.0 mm 0.00 in/hr0.0 mm/hr 0.00 in0.0 mm
01:20 PM 59.3°F15.2°C 19.3°F-7.1°C 21% 13.1 mph W21.1 kmh W 16.0 mph25.7 kmh 30.02 in1016.6 mb 0.00 in0.0 mm 0.00 in/hr0.0 mm/hr 0.00 in0.0 mm
01:10 PM 59.0°F15.0°C 19.1°F-7.2°C 21% 14.0 mph SW22.5 kmh SW 19.0 mph30.6 kmh 30.02 in1016.6 mb 0.00 in0.0 mm 0.00 in/hr0.0 mm/hr 0.00 in0.0 mm
01:01 PM 58.3°F14.6°C 18.5°F-7.5°C 21% 11.5 mph WSW18.5 kmh WSW 17.0 mph27.4 kmh 30.03 in1016.9 mb 0.00 in0.0 mm 0.00 in/hr0.0 mm/hr 0.00 in0.0 mm
12:50 PM 58.0°F14.4°C 18.2°F-7.7°C 21% 11.4 mph SW18.3 kmh SW 19.0 mph30.6 kmh 30.05 in1017.6 mb 0.00 in0.0 mm 0.00 in/hr0.0 mm/hr 0.00 in0.0 mm
12:40 PM 57.2°F14.0°C 18.7°F-7.4°C 22% 10.2 mph W16.4 kmh W 16.0 mph25.7 kmh 30.05 in1017.6 mb 0.00 in0.0 mm 0.00 in/hr0.0 mm/hr 0.00 in0.0 mm
12:30 PM 57.3°F14.1°C 18.7°F-7.4°C 22% 8.2 mph SW13.2 kmh SW 12.0 mph19.3 kmh 30.06 in1017.9 mb 0.00 in0.0 mm 0.00 in/hr0.0 mm/hr 0.00 in0.0 mm
12:20 PM 55.9°F13.3°C 17.6°F-8.0°C 22% 13.4 mph SW21.6 kmh SW 20.0 mph32.2 kmh 30.06 in1017.9 mb 0.00 in0.0 mm 0.00 in/hr0.0 mm/hr 0.00 in0.0 mm
12:10 PM 55.3°F12.9°C 18.1°F-7.7°C 23% 10.4 mph SW16.7 kmh SW 13.0 mph20.9 kmh 30.07 in1018.3 mb 0.00 in0.0 mm 0.00 in/hr0.0 mm/hr 0.00 in0.0 mm
12:01 PM 54.7°F12.6°C 16.6°F-8.6°C 22% 13.6 mph WSW21.9 kmh WSW 17.0 mph27.4 kmh 30.08 in1018.6 mb 0.00 in0.0 mm 0.00 in/hr0.0 mm/hr 0.00 in0.0 mm
11:50 AM 54.7°F12.6°C 15.5°F-9.2°C 21% 9.1 mph WSW14.6 kmh WSW 16.0 mph25.7 kmh 30.08 in1018.6 mb 0.00 in0.0 mm 0.00 in/hr0.0 mm/hr 0.00 in0.0 mm
11:40 AM 54.4°F12.4°C 16.3°F-8.7°C 22% 8.9 mph WSW14.3 kmh WSW 16.0 mph25.7 kmh 30.09 in1019.0 mb 0.00 in0.0 mm 0.00 in/hr0.0 mm/hr 0.00 in0.0 mm
11:30 AM 53.8°F12.1°C 16.8°F-8.4°C 23% 10.9 mph SW17.5 kmh SW 14.0 mph22.5 kmh 30.10 in1019.3 mb 0.00 in0.0 mm 0.00 in/hr0.0 mm/hr 0.00 in0.0 mm
11:20 AM 52.6°F11.4°C 16.8°F-8.4°C 24% 9.2 mph WSW14.8 kmh WSW 12.0 mph19.3 kmh 30.10 in1019.3 mb 0.00 in0.0 mm 0.00 in/hr0.0 mm/hr 0.00 in0.0 mm
11:10 AM 52.0°F11.1°C 18.1°F-7.7°C 26% 5.6 mph SW9.0 kmh SW 8.0 mph12.9 kmh 30.11 in1019.6 mb 0.00 in0.0 mm 0.00 in/hr0.0 mm/hr 0.00 in0.0 mm
11:00 AM 50.3°F10.2°C 20.8°F-6.2°C 31% 2.2 mph SW3.5 kmh SW 3.0 mph4.8 kmh 30.11 in1019.6 mb 0.00 in0.0 mm 0.00 in/hr0.0 mm/hr 0.00 in0.0 mm
10:50 AM 48.7°F9.3°C 20.8°F-6.2°C 33% 5.3 mph WSW8.5 kmh WSW 7.0 mph11.3 kmh 30.12 in1020.0 mb 0.00 in0.0 mm 0.00 in/hr0.0 mm/hr 0.00 in0.0 mm
10:40 AM 47.8°F8.8°C 20.0°F-6.7°C 33% 8.4 mph SSW13.5 kmh SSW 10.0 mph16.1 kmh 30.12 in1020.0 mb 0.00 in0.0 mm 0.00 in/hr0.0 mm/hr 0.00 in0.0 mm
10:30 AM 46.1°F7.8°C 20.6°F-6.3°C 36% 5.9 mph SW9.5 kmh SW 9.0 mph14.5 kmh 30.13 in1020.3 mb 0.00 in0.0 mm 0.00 in/hr0.0 mm/hr 0.00 in0.0 mm
10:20 AM 45.3°F7.4°C 19.9°F-6.7°C 36% 6.3 mph SW10.1 kmh SW 9.0 mph14.5 kmh 30.13 in1020.3 mb 0.00 in0.0 mm 0.00 in/hr0.0 mm/hr 0.00 in0.0 mm
10:10 AM 43.8°F6.6°C 19.8°F-6.8°C 38% 5.1 mph SW8.2 kmh SW 7.0 mph11.3 kmh 30.13 in1020.3 mb 0.00 in0.0 mm 0.00 in/hr0.0 mm/hr 0.00 in0.0 mm
10:01 AM 42.9°F6.1°C 20.2°F-6.6°C 40% 4.8 mph SW7.7 kmh SW 8.0 mph12.9 kmh 30.13 in1020.3 mb 0.00 in0.0 mm 0.00 in/hr0.0 mm/hr 0.00 in0.0 mm
09:50 AM 42.2°F5.7°C 18.9°F-7.3°C 39% 6.8 mph SSW10.9 kmh SSW 9.0 mph14.5 kmh 30.14 in1020.7 mb 0.00 in0.0 mm 0.00 in/hr0.0 mm/hr 0.00 in0.0 mm
09:40 AM 40.8°F4.9°C 19.4°F-7.0°C 42% 4.8 mph WSW7.7 kmh WSW 6.0 mph9.7 kmh 30.14 in1020.7 mb 0.00 in0.0 mm 0.00 in/hr0.0 mm/hr 0.00 in0.0 mm
09:30 AM 38.4°F3.6°C 20.4°F-6.4°C 48% 0.8 mph SW1.3 kmh SW 3.0 mph4.8 kmh 30.15 in1021.0 mb 0.00 in0.0 mm 0.00 in/hr0.0 mm/hr 0.00 in0.0 mm
09:20 AM 36.8°F2.7°C 19.8°F-6.8°C 50% 3.2 mph SSW5.1 kmh SSW 8.0 mph12.9 kmh 30.15 in1021.0 mb 0.00 in0.0 mm 0.00 in/hr0.0 mm/hr 0.00 in0.0 mm
09:10 AM 35.1°F1.7°C 18.8°F-7.3°C 51% 1.6 mph WSW2.6 kmh WSW 2.0 mph3.2 kmh 30.15 in1021.0 mb 0.00 in0.0 mm 0.00 in/hr0.0 mm/hr 0.00 in0.0 mm
09:01 AM 33.8°F1.0°C 18.9°F-7.3°C 54% 1.3 mph WSW2.1 kmh WSW 4.0 mph6.4 kmh 30.16 in1021.3 mb 0.00 in0.0 mm 0.00 in/hr0.0 mm/hr 0.00 in0.0 mm
08:50 AM 33.1°F0.6°C 18.7°F-7.4°C 55% 1.3 mph SW2.1 kmh SW 3.0 mph4.8 kmh 30.16 in1021.3 mb 0.00 in0.0 mm 0.00 in/hr0.0 mm/hr 0.00 in0.0 mm
08:40 AM 31.8°F-0.1°C 19.1°F-7.2°C 59% 0.1 mph SSE0.2 kmh SSE -- 30.16 in1021.3 mb 0.00 in0.0 mm 0.00 in/hr0.0 mm/hr 0.00 in0.0 mm
08:30 AM 30.2°F-1.0°C 18.4°F-7.6°C 61% 2.7 mph SW4.3 kmh SW 4.0 mph6.4 kmh 30.16 in1021.3 mb 0.00 in0.0 mm 0.00 in/hr0.0 mm/hr 0.00 in0.0 mm
08:20 AM 29.3°F-1.5°C 18.2°F-7.7°C 63% 0.2 mph SW0.3 kmh SW 1.0 mph1.6 kmh 30.16 in1021.3 mb 0.00 in0.0 mm 0.00 in/hr0.0 mm/hr 0.00 in0.0 mm
08:10 AM 28.4°F-2.0°C 17.8°F-7.9°C 64% 0.2 mph SW0.3 kmh SW 1.0 mph1.6 kmh 30.16 in1021.3 mb 0.00 in0.0 mm 0.00 in/hr0.0 mm/hr 0.00 in0.0 mm
08:01 AM 28.1°F-2.2°C 17.1°F-8.3°C 63% Calm Calm -- 30.16 in1021.3 mb 0.00 in0.0 mm 0.00 in/hr0.0 mm/hr 0.00 in0.0 mm
07:50 AM 26.2°F-3.2°C 17.4°F-8.1°C 69% Calm Calm -- 30.16 in1021.3 mb 0.00 in0.0 mm 0.00 in/hr0.0 mm/hr 0.00 in0.0 mm
07:40 AM 25.4°F-3.7°C 16.6°F-8.6°C 69% Calm Calm -- 30.16 in1021.3 mb 0.00 in0.0 mm 0.00 in/hr0.0 mm/hr 0.00 in0.0 mm
07:30 AM 24.4°F-4.2°C 16.6°F-8.6°C 72% Calm Calm -- 30.16 in1021.3 mb 0.00 in0.0 mm 0.00 in/hr0.0 mm/hr 0.00 in0.0 mm
07:20 AM 23.1°F-4.9°C 15.7°F-9.1°C 73% Calm Calm -- 30.16 in1021.3 mb 0.00 in0.0 mm 0.00 in/hr0.0 mm/hr 0.00 in0.0 mm
07:10 AM 22.7°F-5.2°C 15.3°F-9.3°C 73% Calm Calm 1.0 mph1.6 kmh 30.17 in1021.7 mb 0.00 in0.0 mm 0.00 in/hr0.0 mm/hr 0.00 in0.0 mm
07:01 AM 22.5°F-5.3°C 15.5°F-9.2°C 74% Calm Calm -- 30.16 in1021.3 mb 0.00 in0.0 mm 0.00 in/hr0.0 mm/hr 0.00 in0.0 mm
06:50 AM 22.8°F-5.1°C 15.4°F-9.2°C 73% Calm Calm -- 30.16 in1021.3 mb 0.00 in0.0 mm 0.00 in/hr0.0 mm/hr 0.00 in0.0 mm
06:40 AM 22.6°F-5.2°C 15.2°F-9.3°C 73% 1.0 mph WNW1.6 kmh WNW 2.0 mph3.2 kmh 30.17 in1021.7 mb 0.00 in0.0 mm 0.00 in/hr0.0 mm/hr 0.00 in0.0 mm
06:31 AM 22.5°F-5.3°C 14.9°F-9.5°C 72% Calm Calm 1.0 mph1.6 kmh 30.17 in1021.7 mb 0.00 in0.0 mm 0.00 in/hr0.0 mm/hr 0.00 in0.0 mm
06:20 AM 23.1°F-4.9°C 15.4°F-9.2°C 72% 0.1 mph WNW0.2 kmh WNW 1.0 mph1.6 kmh 30.17 in1021.7 mb 0.00 in0.0 mm 0.00 in/hr0.0 mm/hr 0.00 in0.0 mm
06:10 AM 23.3°F-4.8°C 15.3°F-9.3°C 71% 0.2 mph WNW0.3 kmh WNW 1.0 mph1.6 kmh 30.17 in1021.7 mb 0.00 in0.0 mm 0.00 in/hr0.0 mm/hr 0.00 in0.0 mm
06:01 AM 23.4°F-4.8°C 15.4°F-9.2°C 71% 1.0 mph WNW1.6 kmh WNW 1.0 mph1.6 kmh 30.17 in1021.7 mb 0.00 in0.0 mm 0.00 in/hr0.0 mm/hr 0.00 in0.0 mm
05:50 AM 23.6°F-4.7°C 15.2°F-9.3°C 70% 1.2 mph WNW1.9 kmh WNW 3.0 mph4.8 kmh 30.17 in1021.7 mb 0.00 in0.0 mm 0.00 in/hr0.0 mm/hr 0.00 in0.0 mm
05:40 AM 24.0°F-4.4°C 15.3°F-9.3°C 69% 0.7 mph WNW1.1 kmh WNW 1.0 mph1.6 kmh 30.17 in1021.7 mb 0.00 in0.0 mm 0.00 in/hr0.0 mm/hr 0.00 in0.0 mm
05:30 AM 24.9°F-3.9°C 15.8°F-9.0°C 68% Calm Calm -- 30.18 in1022.0 mb 0.00 in0.0 mm 0.00 in/hr0.0 mm/hr 0.00 in0.0 mm
05:20 AM 25.0°F-3.9°C 16.3°F-8.7°C 69% 2.0 mph W3.2 kmh W 3.0 mph4.8 kmh 30.18 in1022.0 mb 0.00 in0.0 mm 0.00 in/hr0.0 mm/hr 0.00 in0.0 mm
05:10 AM 24.7°F-4.1°C 16.0°F-8.9°C 69% 2.4 mph WNW3.9 kmh WNW 3.0 mph4.8 kmh 30.18 in1022.0 mb 0.00 in0.0 mm 0.00 in/hr0.0 mm/hr 0.00 in0.0 mm
05:01 AM 24.7°F-4.1°C 15.7°F-9.1°C 68% 1.0 mph WNW1.6 kmh WNW 2.0 mph3.2 kmh 30.18 in1022.0 mb 0.00 in0.0 mm 0.00 in/hr0.0 mm/hr 0.00 in0.0 mm
04:50 AM 25.3°F-3.7°C 15.9°F-8.9°C 67% 0.6 mph NW1.0 kmh NW 2.0 mph3.2 kmh 30.18 in1022.0 mb 0.00 in0.0 mm 0.00 in/hr0.0 mm/hr 0.00 in0.0 mm
04:40 AM 25.8°F-3.4°C 16.0°F-8.9°C 66% 1.3 mph WNW2.1 kmh WNW 3.0 mph4.8 kmh 30.19 in1022.4 mb 0.00 in0.0 mm 0.00 in/hr0.0 mm/hr 0.00 in0.0 mm
04:30 AM 26.2°F-3.2°C 16.4°F-8.7°C 66% 3.0 mph WNW4.8 kmh WNW 4.0 mph6.4 kmh 30.19 in1022.4 mb 0.00 in0.0 mm 0.00 in/hr0.0 mm/hr 0.00 in0.0 mm
04:20 AM 25.7°F-3.5°C 16.3°F-8.7°C 67% 2.2 mph WSW3.5 kmh WSW 3.0 mph4.8 kmh 30.19 in1022.4 mb 0.00 in0.0 mm 0.00 in/hr0.0 mm/hr 0.00 in0.0 mm
04:10 AM 25.4°F-3.7°C 16.0°F-8.9°C 67% 1.8 mph W2.9 kmh W 3.0 mph4.8 kmh 30.19 in1022.4 mb 0.00 in0.0 mm 0.00 in/hr0.0 mm/hr 0.00 in0.0 mm
04:01 AM 25.7°F-3.5°C 15.9°F-8.9°C 66% 1.8 mph W2.9 kmh W 3.0 mph4.8 kmh 30.19 in1022.4 mb 0.00 in0.0 mm 0.00 in/hr0.0 mm/hr 0.00 in0.0 mm
03:50 AM 25.9°F-3.4°C 15.7°F-9.1°C 65% 3.0 mph W4.8 kmh W 4.0 mph6.4 kmh 30.20 in1022.7 mb 0.00 in0.0 mm 0.00 in/hr0.0 mm/hr 0.00 in0.0 mm
03:40 AM 26.1°F-3.3°C 15.9°F-8.9°C 65% 1.1 mph WNW1.8 kmh WNW 1.0 mph1.6 kmh 30.20 in1022.7 mb 0.00 in0.0 mm 0.00 in/hr0.0 mm/hr 0.00 in0.0 mm
03:30 AM 26.2°F-3.2°C 16.0°F-8.9°C 65% 0.1 mph WNW0.2 kmh WNW 1.0 mph1.6 kmh 30.20 in1022.7 mb 0.00 in0.0 mm 0.00 in/hr0.0 mm/hr 0.00 in0.0 mm
03:20 AM 26.5°F-3.1°C 16.3°F-8.7°C 65% 1.4 mph WNW2.3 kmh WNW 3.0 mph4.8 kmh 30.20 in1022.7 mb 0.00 in0.0 mm 0.00 in/hr0.0 mm/hr 0.00 in0.0 mm
03:10 AM 27.1°F-2.7°C 16.5°F-8.6°C 64% 0.7 mph WNW1.1 kmh WNW 1.0 mph1.6 kmh 30.20 in1022.7 mb 0.00 in0.0 mm 0.00 in/hr0.0 mm/hr 0.00 in0.0 mm
03:01 AM 27.7°F-2.4°C 16.7°F-8.5°C 63% 0.2 mph W0.3 kmh W 3.0 mph4.8 kmh 30.20 in1022.7 mb 0.00 in0.0 mm 0.00 in/hr0.0 mm/hr 0.00 in0.0 mm
02:50 AM 28.1°F-2.2°C 17.1°F-8.3°C 63% 1.8 mph WNW2.9 kmh WNW 3.0 mph4.8 kmh 30.21 in1023.0 mb 0.00 in0.0 mm 0.00 in/hr0.0 mm/hr 0.00 in0.0 mm
02:40 AM 27.8°F-2.3°C 17.2°F-8.2°C 64% 1.8 mph W2.9 kmh W 3.0 mph4.8 kmh 30.21 in1023.0 mb 0.00 in0.0 mm 0.00 in/hr0.0 mm/hr 0.00 in0.0 mm
02:30 AM 28.1°F-2.2°C 17.1°F-8.3°C 63% 0.3 mph WNW0.5 kmh WNW 1.0 mph1.6 kmh 30.21 in1023.0 mb 0.00 in0.0 mm 0.00 in/hr0.0 mm/hr 0.00 in0.0 mm
02:20 AM 29.2°F-1.6°C 17.4°F-8.1°C 61% 0.3 mph WNW0.5 kmh WNW 1.0 mph1.6 kmh 30.21 in1023.0 mb 0.00 in0.0 mm 0.00 in/hr0.0 mm/hr 0.00 in0.0 mm
02:10 AM 29.8°F-1.2°C 17.6°F-8.0°C 60% 2.1 mph W3.4 kmh W 3.0 mph4.8 kmh 30.21 in1023.0 mb 0.00 in0.0 mm 0.00 in/hr0.0 mm/hr 0.00 in0.0 mm
02:01 AM 29.9°F-1.2°C 18.1°F-7.7°C 61% 0.9 mph W1.4 kmh W 2.0 mph3.2 kmh 30.21 in1023.0 mb 0.00 in0.0 mm 0.00 in/hr0.0 mm/hr 0.00 in0.0 mm
01:50 AM 28.9°F-1.7°C 17.5°F-8.1°C 62% 2.0 mph W3.2 kmh W 3.0 mph4.8 kmh 30.21 in1023.0 mb 0.00 in0.0 mm 0.00 in/hr0.0 mm/hr 0.00 in0.0 mm
01:40 AM 28.3°F-2.1°C 16.9°F-8.4°C 62% 0.4 mph WNW0.6 kmh WNW 1.0 mph1.6 kmh 30.21 in1023.0 mb 0.00 in0.0 mm 0.00 in/hr0.0 mm/hr 0.00 in0.0 mm
01:30 AM 27.5°F-2.5°C 16.5°F-8.6°C 63% 0.4 mph WNW0.6 kmh WNW 1.0 mph1.6 kmh 30.21 in1023.0 mb 0.00 in0.0 mm 0.00 in/hr0.0 mm/hr 0.00 in0.0 mm
01:20 AM 27.1°F-2.7°C 16.1°F-8.8°C 63% Calm Calm 1.0 mph1.6 kmh 30.21 in1023.0 mb 0.00 in0.0 mm 0.00 in/hr0.0 mm/hr 0.00 in0.0 mm
01:10 AM 27.9°F-2.3°C 15.8°F-9.0°C 60% Calm Calm -- 30.21 in1023.0 mb 0.00 in0.0 mm 0.00 in/hr0.0 mm/hr 0.00 in0.0 mm
01:01 AM 28.8°F-1.8°C 16.3°F-8.7°C 59% Calm Calm -- 30.21 in1023.0 mb 0.00 in0.0 mm 0.00 in/hr0.0 mm/hr 0.00 in0.0 mm
12:50 AM 29.6°F-1.3°C 16.6°F-8.6°C 58% Calm Calm 1.0 mph1.6 kmh 30.21 in1023.0 mb 0.00 in0.0 mm 0.00 in/hr0.0 mm/hr 0.00 in0.0 mm
12:40 AM 29.6°F-1.3°C 16.6°F-8.6°C 58% 1.9 mph WNW3.1 kmh WNW 3.0 mph4.8 kmh 30.21 in1023.0 mb 0.00 in0.0 mm 0.00 in/hr0.0 mm/hr 0.00 in0.0 mm
12:30 AM 30.6°F-0.8°C 16.3°F-8.7°C 55% 1.0 mph N1.6 kmh N 2.0 mph3.2 kmh 30.21 in1023.0 mb 0.00 in0.0 mm 0.00 in/hr0.0 mm/hr 0.00 in0.0 mm
12:20 AM 31.6°F-0.2°C 16.9°F-8.4°C 54% 2.4 mph W3.9 kmh W 3.0 mph4.8 kmh 30.21 in1023.0 mb 0.00 in0.0 mm 0.00 in/hr0.0 mm/hr 0.00 in0.0 mm
12:10 AM 32.2°F0.1°C 17.0°F-8.3°C 53% 2.2 mph WNW3.5 kmh WNW 3.0 mph4.8 kmh 30.21 in1023.0 mb 0.00 in0.0 mm 0.00 in/hr0.0 mm/hr 0.00 in0.0 mm
12:01 AM 32.6°F0.3°C 16.9°F-8.4°C 52% 2.1 mph WNW3.4 kmh WNW 3.0 mph4.8 kmh 30.21 in1023.0 mb 0.00 in0.0 mm 0.00 in/hr0.0 mm/hr 0.00 in0.0 mm